Available data for KAFO from the past hour
Metar
KAFO 161635Z AUTO 16014KT 10SM CLR 22/04 A3001 RMK AO2

16:35 UTC

Wind: 160° 14kt

Visibility: 10 SM

Sky:

Temp: 22 deg C / 71.6 deg F

Dewpoint: 4 deg C / 39.2 deg F

Pressure: 30.01 inHg

The next Board Meeting is: Aug, 2019           The next Annual Meeting is: Jul ??, 2020

IMG_1868

Please help us keep our taxiways free of debris. The taxiways are only for aircraft.